»·PEaware :: N481UA KASE-KPUC

N481UA :: KASE-KPUC

FLIGHT INFORMATION

Flight Status: Arrived
Operator: Privately registered:
United States
More flights under this callsign
Pilot: Alex C. (14758)
Aircraft: AIRBUS A320
(A320)
More flights by this aircraft type
Origin: KASE Aspen-Pitkin Co/Sardy
United States
Destination: KPUC Carbon Co
United States
More flights between these airports :: More routes between these airports
Route: PITKN4 JNC ADIBE
File this flight plan on PilotEdge
Remarks:
Altitude:
(Current/Filed)
24,000ft
Speed:
(Current/Filed)
450kts
Departed: 07-Nov-18 10:00 PM
Arrived: 07-Nov-18 10:50 PM
Distance/Time
Traveled:
181nm/0:50
Distance/Time
To Go:
Arrived

Flight Plot

Page will automatically refresh every two minutes.

Flight plan parsing failed; only flown route is shown


Map Options




Map Legend


Flown Route
Filed Route
Departure Airport
Arrival Airport
Navaid (VOR, NDB)
Fix

Horizontal Profiles

Position Reports

Time Latitude Longitude Heading Altitude Ground
Speed
07-Nov-18 21:50 39.219263 -106.864782 75 7843ft 0kts
07-Nov-18 21:51 39.219263 -106.864782 75 7843ft 0kts
07-Nov-18 21:52 39.219263 -106.864782 75 7843ft 0kts
07-Nov-18 21:53 39.219263 -106.864782 75 7843ft 0kts
07-Nov-18 21:54 39.219236 -106.864918 75 7843ft 0kts
07-Nov-18 21:55 39.219321 -106.865313 148 7843ft 0kts
07-Nov-18 21:56 39.219321 -106.865313 148 7843ft 0kts
07-Nov-18 21:57 39.219321 -106.865313 148 7843ft 0kts
07-Nov-18 21:58 39.218149 -106.865267 163 7843ft 18kts
07-Nov-18 21:59 39.214773 -106.863685 159 7843ft 26kts
07-Nov-18 22:00 39.212388 -106.862532 171 7843ft 0kts
07-Nov-18 22:01 39.212229 -106.862521 183 7843ft 6kts
07-Nov-18 22:02 39.212008 -106.863521 339 7843ft 0kts
07-Nov-18 22:03 39.226835 -106.870500 338 7845ft 153kts
07-Nov-18 22:04 39.255497 -106.881089 351 8792ft 201kts
07-Nov-18 22:05 39.294345 -106.908621 293 10087ft 272kts
07-Nov-18 22:06 39.323167 -106.990103 295 13897ft 294kts
07-Nov-18 22:07 39.358850 -107.081812 296 15107ft 370kts
07-Nov-18 22:08 39.382518 -107.176235 263 17471ft 373kts
07-Nov-18 22:09 39.363415 -107.286967 259 19786ft 380kts
07-Nov-18 22:10 39.342576 -107.394372 259 21810ft 385kts
07-Nov-18 22:11 39.319568 -107.512578 259 23772ft 391kts
07-Nov-18 22:12 39.296493 -107.629539 259 24113ft 394kts
07-Nov-18 22:13 39.272844 -107.748707 258 24120ft 392kts
07-Nov-18 22:14 39.248996 -107.868105 258 24120ft 392kts
07-Nov-18 22:15 39.224852 -107.988269 258 24120ft 392kts
07-Nov-18 22:16 39.202546 -108.098674 258 24116ft 392kts
07-Nov-18 22:17 39.178202 -108.218503 258 24111ft 393kts
07-Nov-18 22:18 39.154672 -108.333673 258 24110ft 393kts
07-Nov-18 22:19 39.133215 -108.438157 258 24110ft 393kts
07-Nov-18 22:20 39.110409 -108.548638 258 24109ft 393kts
07-Nov-18 22:21 39.086930 -108.661795 258 24111ft 393kts
07-Nov-18 22:22 39.062547 -108.780167 261 24110ft 392kts
07-Nov-18 22:23 39.063105 -108.902197 273 24112ft 388kts
07-Nov-18 22:24 39.066571 -109.025216 273 24109ft 389kts
07-Nov-18 22:25 39.070089 -109.150597 273 24104ft 391kts
07-Nov-18 22:26 39.073486 -109.276037 273 24102ft 391kts
07-Nov-18 22:27 39.076573 -109.394561 273 24101ft 391kts
07-Nov-18 22:28 39.079580 -109.514983 273 24089ft 379kts
07-Nov-18 22:29 39.082291 -109.627972 273 23916ft 325kts
07-Nov-18 22:30 39.084622 -109.728256 273 22164ft 326kts
07-Nov-18 22:31 39.086861 -109.828740 272 20541ft 323kts
07-Nov-18 22:32 39.088962 -109.926874 272 18967ft 321kts
07-Nov-18 22:33 39.090929 -110.022491 272 17436ft 319kts
07-Nov-18 22:34 39.092799 -110.117045 272 15938ft 317kts
07-Nov-18 22:35 39.094539 -110.208837 272 14488ft 315kts
07-Nov-18 22:36 39.096169 -110.298446 271 13078ft 314kts
07-Nov-18 22:37 39.097759 -110.389756 271 12145ft 332kts
07-Nov-18 22:38 39.099268 -110.480770 271 12000ft 289kts
07-Nov-18 22:39 39.100634 -110.566341 271 12000ft 290kts
07-Nov-18 22:40 39.101938 -110.652390 271 12000ft 290kts
07-Nov-18 22:41 39.107060 -110.736896 296 12006ft 289kts
07-Nov-18 22:42 39.166574 -110.761511 355 12005ft 271kts
07-Nov-18 22:43 39.228897 -110.775475 345 11058ft 265kts
07-Nov-18 22:44 39.286811 -110.793883 344 10163ft 261kts
07-Nov-18 22:45 39.342222 -110.812533 344 9305ft 257kts
07-Nov-18 22:46 39.397124 -110.831239 343 8807ft 237kts
07-Nov-18 22:47 39.445994 -110.822005 14 8085ft 213kts
07-Nov-18 22:48 39.486159 -110.805615 15 7778ft 149kts
07-Nov-18 22:49 39.517476 -110.792512 15 7474ft 155kts
07-Nov-18 22:50 39.548512 -110.779337 15 6924ft 153kts
07-Nov-18 22:51 39.579722 -110.766017 15 6379ft 150kts
07-Nov-18 22:52 39.610995 -110.752630 15 5966ft 125kts
07-Nov-18 22:53 39.621548 -110.747502 97 5965ft 7kts
07-Nov-18 22:54 39.609958 -110.750795 41 5965ft 3kts
07-Nov-18 22:55 39.610290 -110.750678 13 5965ft 0kts

Navigation Log

Ident Type
Flight plan parsing failed, navigation log unavailable